Time;durP1;ratioP1;P1;durP2;ratioP2;P2;SDS_P1;SDS_P2;PMS_P1;PMS_P2;Temp;Humidity;BMP_temperature;BMP_pressure;BME280_temperature;BME280_humidity;BME280_pressure;Samples;Min_cycle;Max_cycle;Signal;HPM_P1;HPM_P2
2023/12/24 00:00:30;;;;;;;3.22;2.42;;;;;;;8.93;96.42;100760.25;4921377;29;20043;-91
2023/12/24 00:03:01;;;;;;;4.80;2.33;;;;;;;8.94;96.39;100772.34;4924949;29;20035;-90
2023/12/24 00:05:34;;;;;;;5.95;2.95;;;;;;;8.91;96.58;100769.81;4922139;29;20041;-91
2023/12/24 00:08:05;;;;;;;6.93;2.70;;;;;;;8.92;96.68;100770.69;4936210;29;20036;-91
2023/12/24 00:10:31;;;;;;;4.57;2.30;;;;;;;8.96;96.60;100765.41;4927295;29;20028;-90
2023/12/24 00:12:56;;;;;;;6.57;3.03;;;;;;;8.98;96.57;100759.31;4945275;29;20034;-90
2023/12/24 00:15:22;;;;;;;5.90;3.10;;;;;;;8.98;96.32;100762.75;4933061;29;20115;-90
2023/12/24 00:17:47;;;;;;;5.35;3.30;;;;;;;9.03;96.21;100778.25;4923042;29;20500;-91
2023/12/24 00:20:18;;;;;;;8.13;3.50;;;;;;;9.01;96.42;100778.28;4919961;29;20027;-90
2023/12/24 00:22:43;;;;;;;9.02;3.95;;;;;;;9.02;96.04;100789.53;4942957;29;20123;-91
2023/12/24 00:25:11;;;;;;;8.30;3.78;;;;;;;9.01;96.50;100793.00;4934699;29;20114;-90
2023/12/24 00:27:37;;;;;;;6.30;3.20;;;;;;;9.01;96.56;100782.63;4921612;29;20047;-90
2023/12/24 00:30:02;;;;;;;7.47;3.83;;;;;;;9.04;95.94;100777.38;4939325;29;20020;-91
2023/12/24 00:32:31;;;;;;;6.05;3.50;;;;;;;9.03;96.38;100775.66;4936696;29;20051;-90
2023/12/24 00:34:56;;;;;;;6.72;3.47;;;;;;;9.00;96.20;100760.16;4935799;29;20047;-91
2023/12/24 00:37:22;;;;;;;7.63;3.33;;;;;;;9.04;95.84;100761.81;4922301;29;20027;-91
2023/12/24 00:39:50;;;;;;;7.82;3.30;;;;;;;9.02;95.70;100738.47;4932211;29;20077;-91
2023/12/24 00:42:15;;;;;;;7.95;3.38;;;;;;;9.05;95.27;100745.34;4934835;29;20035;-90
2023/12/24 00:44:43;;;;;;;6.25;2.80;;;;;;;9.06;94.91;100744.44;4936368;29;20090;-89
2023/12/24 00:47:09;;;;;;;4.60;2.90;;;;;;;9.08;93.89;100737.47;4933884;29;20387;-90
2023/12/24 00:49:34;;;;;;;7.28;3.00;;;;;;;9.10;94.08;100733.09;4915892;29;20115;-90
2023/12/24 00:52:03;;;;;;;5.18;2.50;;;;;;;9.10;93.65;100713.22;4932875;29;20043;-90
2023/12/24 00:54:28;;;;;;;6.22;2.60;;;;;;;9.08;92.52;100686.44;4936094;29;20031;-90
2023/12/24 00:59:52;;;;;;;3.55;2.00;;;;;;;9.09;92.20;100676.91;4934484;29;20384;-90
2023/12/24 01:02:18;;;;;;;6.47;1.98;;;;;;;9.06;92.23;100676.97;4935617;29;20046;-90
2023/12/24 01:04:43;;;;;;;3.63;1.88;;;;;;;9.06;91.30;100664.00;4931753;29;20020;-91
2023/12/24 01:07:09;;;;;;;3.67;1.58;;;;;;;9.05;91.55;100664.91;4932485;29;20082;-91
2023/12/24 01:09:38;;;;;;;2.67;1.30;;;;;;;9.03;91.61;100646.75;4928670;29;20164;-90
2023/12/24 01:12:09;;;;;;;3.00;1.52;;;;;;;9.01;91.74;100632.13;4936637;29;20035;-90
2023/12/24 01:14:37;;;;;;;3.95;1.42;;;;;;;9.02;91.73;100636.44;4927775;29;20692;-90
2023/12/24 01:17:03;;;;;;;4.40;1.77;;;;;;;9.05;91.32;100633.75;4933544;29;20499;-90
2023/12/24 01:19:28;;;;;;;3.75;1.55;;;;;;;9.03;91.13;100635.53;4931689;29;20058;-90
2023/12/24 01:21:56;;;;;;;6.65;2.13;;;;;;;9.00;91.59;100631.25;4917524;29;20028;-90
2023/12/24 01:24:22;;;;;;;6.38;1.73;;;;;;;9.01;91.80;100632.97;4933689;29;20040;-90
2023/12/24 01:26:47;;;;;;;2.25;1.30;;;;;;;9.02;92.16;100633.84;4923603;29;20050;-90
2023/12/24 01:29:13;;;;;;;4.30;1.40;;;;;;;9.03;91.95;100644.16;4922235;29;20082;-90
2023/12/24 01:31:39;;;;;;;3.40;1.58;;;;;;;9.05;91.79;100634.59;4933851;29;20051;-89
2023/12/24 01:34:04;;;;;;;5.28;1.50;;;;;;;9.04;91.73;100642.44;4931311;29;20258;-90
2023/12/24 01:36:30;;;;;;;4.47;1.40;;;;;;;9.05;92.02;100633.75;4932015;29;20051;-90
2023/12/24 01:38:55;;;;;;;5.05;1.23;;;;;;;9.08;92.42;100651.84;4933897;29;20150;-90
2023/12/24 01:41:21;;;;;;;5.30;1.40;;;;;;;9.11;92.32;100647.44;4929848;29;20032;-89
2023/12/24 01:43:46;;;;;;;4.00;1.40;;;;;;;9.08;93.37;100644.06;4931485;29;20027;-90
2023/12/24 01:46:19;;;;;;;5.82;1.40;;;;;;;9.07;93.67;100648.41;4933149;29;20031;-91
2023/12/24 01:48:44;;;;;;;4.35;1.20;;;;;;;9.08;93.99;100639.72;4933962;29;20031;-89
2023/12/24 01:51:10;;;;;;;6.57;1.25;;;;;;;9.07;95.11;100650.13;4917636;29;20032;-90
2023/12/24 01:53:38;;;;;;;5.80;1.63;;;;;;;9.04;95.26;100653.66;4931214;29;20114;-92
2023/12/24 01:56:08;;;;;;;5.55;1.20;;;;;;;9.03;95.97;100643.31;4933857;29;20422;-90
2023/12/24 01:58:34;;;;;;;4.35;1.30;;;;;;;9.04;95.98;100643.28;4918283;29;20317;-89
2023/12/24 02:01:20;;;;;;;4.90;2.03;;;;;;;9.01;96.26;100653.72;4916659;29;20530;-90
2023/12/24 02:03:48;;;;;;;3.97;1.48;;;;;;;8.99;96.87;100646.88;4932344;29;20090;-91
2023/12/24 02:06:14;;;;;;;5.80;1.20;;;;;;;8.96;97.66;100653.84;4941244;23;20052;-90
2023/12/24 02:08:40;;;;;;;4.30;1.13;;;;;;;8.98;97.73;100652.94;4931614;29;20050;-90
2023/12/24 02:11:05;;;;;;;5.38;1.40;;;;;;;8.96;98.69;100651.22;4930350;29;20035;-91
2023/12/24 02:13:32;;;;;;;4.32;1.40;;;;;;;8.92;98.81;100641.81;4918575;29;20077;-90
2023/12/24 02:16:02;;;;;;;4.15;1.40;;;;;;;8.93;99.17;100647.88;4918710;29;20050;-90
2023/12/24 02:18:28;;;;;;;3.20;1.25;;;;;;;8.90;99.21;100635.78;4905880;29;20083;-90
2023/12/24 02:21:01;;;;;;;6.30;1.63;;;;;;;8.88;100.00;100632.38;4923860;29;20028;-90
2023/12/24 02:23:30;;;;;;;5.00;1.40;;;;;;;8.88;100.00;100626.34;4913314;29;20480;-91
2023/12/24 02:25:58;;;;;;;3.22;1.20;;;;;;;8.86;100.00;100633.31;4934482;29;20474;-90
2023/12/24 02:28:27;;;;;;;3.55;1.42;;;;;;;8.85;100.00;100611.72;4922648;29;20028;-90
2023/12/24 02:31:05;;;;;;;4.60;1.70;;;;;;;8.85;100.00;100616.91;4915416;29;20038;-90
2023/12/24 02:33:36;;;;;;;4.90;1.48;;;;;;;8.83;100.00;100613.50;4917574;29;20043;-90
2023/12/24 02:36:02;;;;;;;6.38;1.80;;;;;;;8.85;100.00;100598.75;4935041;29;20059;-92
2023/12/24 02:38:28;;;;;;;5.03;1.88;;;;;;;8.83;100.00;100605.69;4932486;29;20034;-90
2023/12/24 02:41:07;;;;;;;4.95;1.65;;;;;;;8.83;100.00;100607.44;4910212;29;20385;-91
2023/12/24 02:43:34;;;;;;;4.72;1.70;;;;;;;8.83;100.00;100595.31;4915150;29;20044;-88
2023/12/24 02:46:00;;;;;;;3.08;1.60;;;;;;;8.83;100.00;100592.72;4930464;29;20432;-87
2023/12/24 02:48:26;;;;;;;3.83;1.80;;;;;;;8.79;100.00;100593.69;4933429;29;20058;-90
2023/12/24 02:50:52;;;;;;;7.82;1.70;;;;;;;8.77;100.00;100580.75;4934801;29;20051;-88
2023/12/24 02:53:17;;;;;;;4.75;1.40;;;;;;;8.79;100.00;100578.13;4924096;29;20046;-87
2023/12/24 02:55:42;;;;;;;6.28;1.80;;;;;;;8.79;100.00;100578.13;4933836;29;20404;-88
2023/12/24 02:58:08;;;;;;;3.47;1.42;;;;;;;8.76;100.00;100580.78;4933031;29;20174;-88
2023/12/24 03:00:33;;;;;;;3.72;1.50;;;;;;;8.75;100.00;100569.56;4933028;29;20435;-88
2023/12/24 03:02:59;;;;;;;5.80;1.65;;;;;;;8.74;100.00;100572.16;4924313;29;20554;-88
2023/12/24 03:05:24;;;;;;;4.70;1.50;;;;;;;8.74;100.00;100573.03;4933180;29;20059;-88
2023/12/24 03:07:49;;;;;;;3.72;1.45;;;;;;;8.74;100.00;100582.53;4939654;29;20491;-87
2023/12/24 03:10:15;;;;;;;4.30;1.50;;;;;;;8.69;100.00;100566.25;4932053;29;20059;-88
2023/12/24 03:12:40;;;;;;;5.03;1.95;;;;;;;8.71;100.00;100561.88;4945063;29;20031;-89
2023/12/24 03:15:07;;;;;;;5.15;1.50;;;;;;;8.69;100.00;100561.06;4949925;28;20364;-88
2023/12/24 03:17:32;;;;;;;2.97;1.55;;;;;;;8.68;100.00;100556.78;4946375;29;20033;-88
2023/12/24 03:19:57;;;;;;;5.32;1.83;;;;;;;8.71;100.00;100543.75;4929582;29;20028;-86
2023/12/24 03:22:23;;;;;;;4.28;1.83;;;;;;;8.67;100.00;100545.53;4947217;29;20027;-89
2023/12/24 03:24:48;;;;;;;3.22;1.80;;;;;;;8.66;100.00;100536.03;4945386;29;20392;-88
2023/12/24 03:27:14;;;;;;;3.13;1.70;;;;;;;8.67;100.00;100540.34;4945590;29;20035;-88
2023/12/24 03:29:40;;;;;;;3.30;2.10;;;;;;;8.65;100.00;100527.41;4947459;29;20055;-88
2023/12/24 03:32:06;;;;;;;4.80;1.90;;;;;;;8.65;100.00;100524.81;4946351;29;20471;-88
2023/12/24 03:34:31;;;;;;;4.82;1.60;;;;;;;8.63;100.00;100524.00;4946775;29;20495;-89
2023/12/24 03:36:56;;;;;;;3.22;1.40;;;;;;;8.64;100.00;100524.84;4947338;29;20110;-88
2023/12/24 03:39:22;;;;;;;2.75;1.30;;;;;;;8.63;100.00;100518.81;4948682;29;20162;-89
2023/12/24 03:41:47;;;;;;;2.80;1.05;;;;;;;8.64;100.00;100525.72;4940440;29;20070;-88
2023/12/24 03:44:12;;;;;;;1.92;0.90;;;;;;;8.64;100.00;100515.34;4947076;29;20034;-88
2023/12/24 03:46:38;;;;;;;3.55;1.20;;;;;;;8.64;100.00;100499.78;4929585;29;20496;-88
2023/12/24 03:49:03;;;;;;;2.10;0.70;;;;;;;8.65;100.00;100511.84;4944611;29;20086;-87
2023/12/24 03:51:28;;;;;;;2.65;0.70;;;;;;;8.68;100.00;100499.72;4940667;29;20044;-88
2023/12/24 03:53:54;;;;;;;0.93;0.60;;;;;;;8.66;100.00;100497.13;4939261;29;20090;-90
2023/12/24 03:56:19;;;;;;;2.15;0.60;;;;;;;8.68;100.00;100492.78;4941128;29;20471;-87
2023/12/24 03:58:46;;;;;;;1.00;0.57;;;;;;;8.70;100.00;100505.72;4949727;29;20034;-87
2023/12/24 04:01:11;;;;;;;1.60;0.50;;;;;;;8.70;100.00;100505.72;4932738;29;20027;-88
2023/12/24 04:03:37;;;;;;;1.75;0.50;;;;;;;8.68;100.00;100516.13;4946026;29;20039;-87
2023/12/24 04:06:13;;;;;;;1.05;0.50;;;;;;;8.70;100.00;100503.13;4954265;28;20039;-88
2023/12/24 04:08:38;;;;;;;1.13;0.40;;;;;;;8.70;100.00;100498.78;4954127;29;20493;-87
2023/12/24 04:11:10;;;;;;;0.85;0.30;;;;;;;8.70;100.00;100497.94;4954269;29;20027;-88
2023/12/24 04:13:36;;;;;;;1.45;0.30;;;;;;;8.72;100.00;100501.31;4943845;29;20442;-88
2023/12/24 04:16:01;;;;;;;0.63;0.40;;;;;;;8.72;100.00;100496.13;4954710;28;20023;-88
2023/12/24 04:18:26;;;;;;;1.00;0.35;;;;;;;8.72;100.00;100494.41;4938082;29;20039;-88
2023/12/24 04:20:52;;;;;;;0.30;0.22;;;;;;;8.74;100.00;100490.03;4941027;29;20027;-88
2023/12/24 04:23:17;;;;;;;0.30;0.28;;;;;;;8.75;100.00;100496.06;4954299;29;20034;-88
2023/12/24 04:25:42;;;;;;;0.88;0.40;;;;;;;8.73;100.00;100490.94;4935889;29;20031;-86
2023/12/24 04:28:08;;;;;;;1.38;0.20;;;;;;;8.73;100.00;100482.28;4937556;29;20030;-89
2023/12/24 04:30:33;;;;;;;0.30;0.20;;;;;;;8.74;100.00;100489.19;4951736;29;20063;-87
2023/12/24 04:32:58;;;;;;;0.52;0.30;;;;;;;8.73;100.00;100482.28;4953598;29;20105;-89
2023/12/24 04:35:24;;;;;;;0.65;0.38;;;;;;;8.73;100.00;100480.56;4937354;28;20038;-88
2023/12/24 04:37:49;;;;;;;0.60;0.30;;;;;;;8.73;100.00;100483.16;4954040;28;20383;-88
2023/12/24 04:40:14;;;;;;;0.52;0.30;;;;;;;8.75;100.00;100485.69;4957650;28;20027;-88
2023/12/24 04:42:40;;;;;;;1.85;0.30;;;;;;;8.74;100.00;100479.66;4956118;28;20491;-87
2023/12/24 04:45:05;;;;;;;1.33;0.32;;;;;;;8.75;100.00;100480.50;4953473;28;20046;-89
2023/12/24 04:47:30;;;;;;;0.32;0.30;;;;;;;8.75;100.00;100483.97;4954055;29;20031;-88
2023/12/24 04:49:56;;;;;;;0.57;0.30;;;;;;;8.77;100.00;100478.72;4961056;28;20038;-88
2023/12/24 04:52:21;;;;;;;1.20;0.38;;;;;;;8.76;100.00;100471.84;4937355;29;20027;-88
2023/12/24 04:54:46;;;;;;;1.42;0.40;;;;;;;8.80;100.00;100483.84;4952937;29;20070;-88
2023/12/24 04:57:12;;;;;;;0.20;0.20;;;;;;;8.79;100.00;100482.16;4944274;28;20117;-88
2023/12/24 04:59:37;;;;;;;0.77;0.60;;;;;;;8.79;100.00;100469.19;4953490;28;20074;-89
2023/12/24 05:02:02;;;;;;;0.30;0.25;;;;;;;8.79;100.00;100466.59;4952016;29;20114;-88
2023/12/24 05:04:32;;;;;;;1.55;0.30;;;;;;;8.79;100.00;100471.78;4936456;29;20023;-90
2023/12/24 05:06:58;;;;;;;0.47;0.40;;;;;;;8.80;100.00;100474.31;4939708;28;20055;-88
2023/12/24 05:09:23;;;;;;;1.80;0.30;;;;;;;8.79;100.00;100462.25;4938220;29;20026;-88
2023/12/24 05:11:48;;;;;;;0.30;0.30;;;;;;;8.80;100.00;100468.28;4953604;29;20434;-90
2023/12/24 05:14:13;;;;;;;1.27;0.30;;;;;;;8.80;100.00;100455.31;4953426;29;20086;-89
2023/12/24 05:16:39;;;;;;;1.02;0.20;;;;;;;8.79;100.00;100457.06;4959182;28;20027;-89
2023/12/24 05:19:04;;;;;;;0.82;0.30;;;;;;;8.82;100.00;100463.91;4952606;28;20038;-89
2023/12/24 05:21:29;;;;;;;0.60;0.30;;;;;;;8.80;100.00;100455.31;4952910;29;20026;-89
2023/12/24 05:23:56;;;;;;;1.25;0.40;;;;;;;8.83;100.00;100456.97;4952686;29;20043;-89
2023/12/24 05:26:21;;;;;;;0.55;0.30;;;;;;;8.85;100.00;100455.19;4956223;28;20133;-89
2023/12/24 05:28:47;;;;;;;0.40;0.40;;;;;;;8.84;100.00;100454.38;4944558;29;20031;-89
2023/12/24 05:31:12;;;;;;;0.43;0.20;;;;;;;8.84;100.00;100454.38;4957512;28;20031;-88
2023/12/24 05:33:37;;;;;;;2.55;0.40;;;;;;;8.84;100.00;100459.56;4940353;29;20035;-90
2023/12/24 05:36:04;;;;;;;0.28;0.28;;;;;;;8.84;100.00;100451.78;4957474;28;20039;-89
2023/12/24 05:38:29;;;;;;;0.22;0.22;;;;;;;8.86;100.00;100451.72;4959611;28;20397;-89
2023/12/24 05:40:54;;;;;;;0.40;0.40;;;;;;;8.86;100.00;100456.91;4937809;29;20031;-88
2023/12/24 05:43:19;;;;;;;0.40;0.40;;;;;;;8.85;100.00;100450.00;4952858;29;20034;-90
2023/12/24 05:45:46;;;;;;;0.40;0.40;;;;;;;8.84;100.00;100458.69;4952752;29;20035;-89
2023/12/24 05:48:11;;;;;;;0.30;0.30;;;;;;;8.87;100.00;100464.66;4956157;28;20496;-89
2023/12/24 05:50:36;;;;;;;1.17;0.40;;;;;;;8.88;100.00;100455.97;4954759;28;20126;-89
2023/12/24 05:53:02;;;;;;;0.40;0.20;;;;;;;8.86;100.00;100447.41;4952371;28;20534;-89
2023/12/24 05:55:27;;;;;;;1.27;0.38;;;;;;;8.86;100.00;100447.41;4952954;28;20038;-89
2023/12/24 05:57:52;;;;;;;0.75;0.30;;;;;;;8.86;100.00;100446.53;4952802;28;20403;-88
2023/12/24 06:00:18;;;;;;;0.35;0.35;;;;;;;8.87;100.00;100438.72;4948192;28;20046;-89
2023/12/24 06:02:44;;;;;;;0.30;0.30;;;;;;;8.87;100.00;100432.66;4952411;28;20489;-89
2023/12/24 06:05:09;;;;;;;0.30;0.30;;;;;;;8.89;100.00;100439.50;4952155;28;20035;-89
2023/12/24 06:07:35;;;;;;;1.13;0.40;;;;;;;8.92;100.00;100455.00;4953000;29;20098;-90
2023/12/24 06:10:00;;;;;;;2.15;0.30;;;;;;;8.91;100.00;100445.53;4951957;29;20106;-88
2023/12/24 06:12:26;;;;;;;0.55;0.35;;;;;;;8.91;100.00;100440.34;4953549;28;20471;-88
2023/12/24 06:14:51;;;;;;;2.83;0.30;;;;;;;8.89;100.00;100442.09;4958028;28;20534;-89
2023/12/24 06:17:16;;;;;;;1.75;0.25;;;;;;;8.91;100.00;100453.31;4943565;29;20039;-89
2023/12/24 06:19:43;;;;;;;0.57;0.40;;;;;;;8.92;100.00;100441.19;4942513;29;20042;-90
2023/12/24 06:22:08;;;;;;;0.30;0.30;;;;;;;8.91;100.00;100435.13;4952420;29;20122;-91
2023/12/24 06:24:34;;;;;;;1.05;0.68;;;;;;;8.93;100.00;100440.31;4937269;29;20118;-89
2023/12/24 06:26:59;;;;;;;0.40;0.35;;;;;;;8.95;100.00;100429.00;4952922;28;20480;-89
2023/12/24 06:29:24;;;;;;;0.30;0.30;;;;;;;8.96;100.00;100428.09;4957746;28;20031;-89
2023/12/24 06:31:50;;;;;;;0.50;0.47;;;;;;;8.98;100.00;100429.81;4943107;28;20089;-89
2023/12/24 06:34:15;;;;;;;0.38;0.38;;;;;;;8.97;100.00;100423.75;4958588;28;20087;-89
2023/12/24 06:36:40;;;;;;;0.43;0.40;;;;;;;8.96;100.00;100427.25;4950727;28;20050;-89
2023/12/24 06:39:06;;;;;;;1.15;0.40;;;;;;;9.00;100.00;100421.09;4951642;29;20024;-88
2023/12/24 06:41:31;;;;;;;1.40;0.50;;;;;;;8.98;100.00;100417.66;4952945;28;20039;-89
2023/12/24 06:43:57;;;;;;;0.77;0.50;;;;;;;9.00;100.00;100420.25;4956139;28;20117;-89
2023/12/24 06:46:24;;;;;;;0.30;0.30;;;;;;;9.00;100.00;100426.28;4955569;28;20043;-89
2023/12/24 06:48:50;;;;;;;0.63;0.50;;;;;;;9.01;100.00;100419.34;4941692;29;20027;-89
2023/12/24 06:51:15;;;;;;;0.40;0.40;;;;;;;9.01;100.00;100417.59;4953510;28;20376;-90
2023/12/24 06:53:41;;;;;;;0.40;0.40;;;;;;;9.02;100.00;100421.06;4941660;29;20023;-89
2023/12/24 06:56:06;;;;;;;0.80;0.40;;;;;;;9.03;100.00;100422.75;4956821;28;20027;-89
2023/12/24 06:58:31;;;;;;;1.75;0.45;;;;;;;9.04;100.00;100419.28;4958988;28;20109;-89
2023/12/24 07:00:57;;;;;;;0.30;0.30;;;;;;;9.04;100.00;100434.84;4960859;28;20155;-89
2023/12/24 07:03:22;;;;;;;0.40;0.40;;;;;;;9.06;100.00;100422.66;4959822;28;20089;-89
2023/12/24 07:05:47;;;;;;;0.82;0.50;;;;;;;9.06;100.00;100420.06;4945588;28;20059;-90
2023/12/24 07:08:12;;;;;;;1.17;0.30;;;;;;;9.08;100.00;100426.06;4957623;28;20102;-89
2023/12/24 07:10:38;;;;;;;0.47;0.47;;;;;;;9.10;100.00;100424.28;4957356;28;20027;-89
2023/12/24 07:13:03;;;;;;;0.55;0.50;;;;;;;9.09;100.00;100417.41;4957181;28;20035;-90
2023/12/24 07:15:31;;;;;;;0.70;0.47;;;;;;;9.10;100.00;100421.69;4960537;28;20031;-90
2023/12/24 07:17:56;;;;;;;1.63;0.50;;;;;;;9.11;100.00;100415.63;4959246;28;20045;-89
2023/12/24 07:20:22;;;;;;;0.52;0.40;;;;;;;9.11;100.00;100426.88;4944830;29;20031;-89
2023/12/24 07:22:47;;;;;;;1.30;0.30;;;;;;;9.13;100.00;100426.81;4955812;29;20409;-89
2023/12/24 07:25:12;;;;;;;0.63;0.50;;;;;;;9.15;100.00;100427.63;4956871;28;20098;-90
2023/12/24 07:27:38;;;;;;;1.40;0.60;;;;;;;9.15;100.00;100424.16;4955241;29;20086;-90
2023/12/24 07:30:04;;;;;;;1.45;0.60;;;;;;;9.15;100.00;100422.44;4956972;28;20070;-89
2023/12/24 07:32:29;;;;;;;1.17;0.80;;;;;;;9.15;100.00;100417.25;4954721;29;20027;-89
2023/12/24 07:34:58;;;;;;;0.73;0.60;;;;;;;9.16;100.00;100428.47;4955267;28;20058;-89
2023/12/24 07:37:23;;;;;;;1.63;0.65;;;;;;;9.17;100.00;100417.19;4939045;29;20039;-89
2023/12/24 07:39:49;;;;;;;1.48;0.90;;;;;;;9.19;100.00;100428.38;4954422;29;20033;-90
2023/12/24 07:42:14;;;;;;;1.48;0.88;;;;;;;9.17;100.00;100419.78;4938462;28;20462;-90
2023/12/24 07:44:40;;;;;;;2.13;0.75;;;;;;;9.17;100.00;100420.66;4955635;28;20034;-90
2023/12/24 07:47:05;;;;;;;1.88;0.80;;;;;;;9.20;100.00;100432.69;4938883;28;20042;-88
2023/12/24 07:49:30;;;;;;;0.80;0.70;;;;;;;9.19;100.00;100421.47;4948421;28;20031;-90
2023/12/24 07:51:56;;;;;;;3.28;0.77;;;;;;;9.20;100.00;100430.09;4951797;29;20066;-89
2023/12/24 07:54:21;;;;;;;0.63;0.60;;;;;;;9.21;100.00;100430.06;4962815;28;20706;-89
2023/12/24 07:56:46;;;;;;;1.00;0.73;;;;;;;9.23;100.00;100425.66;4954989;28;20481;-90
2023/12/24 07:59:12;;;;;;;1.58;0.90;;;;;;;9.22;100.00;100423.94;4959029;28;20043;-90
2023/12/24 08:01:40;;;;;;;1.00;0.70;;;;;;;9.20;100.00;100410.19;4956457;28;20035;-89
2023/12/24 08:04:05;;;;;;;1.38;0.90;;;;;;;9.25;100.00;100410.91;4953661;29;20031;-89
2023/12/24 08:06:30;;;;;;;2.53;0.80;;;;;;;9.24;100.00;100416.97;4957267;28;20484;-90
2023/12/24 08:08:57;;;;;;;1.00;0.70;;;;;;;9.25;100.00;100413.50;4955651;28;20047;-89
2023/12/24 08:11:22;;;;;;;0.70;0.70;;;;;;;9.24;100.00;100416.16;4953760;29;20034;-89
2023/12/24 08:13:48;;;;;;;0.90;0.60;;;;;;;9.26;100.00;100414.38;4941084;29;20031;-89
2023/12/24 08:16:13;;;;;;;0.77;0.52;;;;;;;9.28;100.00;100422.97;4941171;28;20097;-90
2023/12/24 08:18:38;;;;;;;0.85;0.45;;;;;;;9.30;100.00;100420.31;4957127;28;20031;-90
2023/12/24 08:21:06;;;;;;;0.85;0.50;;;;;;;9.31;100.00;100416.81;4938638;28;20031;-90
2023/12/24 08:23:32;;;;;;;0.40;0.40;;;;;;;9.30;100.00;100418.59;4954438;29;20086;-90
2023/12/24 08:25:57;;;;;;;0.40;0.40;;;;;;;9.32;100.00;100418.53;4953876;28;20487;-89
2023/12/24 08:28:23;;;;;;;0.63;0.30;;;;;;;9.33;100.00;100409.84;4943861;29;20034;-90
2023/12/24 08:30:48;;;;;;;0.38;0.38;;;;;;;9.34;100.00;100407.19;4957904;28;20038;-90
2023/12/24 08:33:13;;;;;;;0.30;0.30;;;;;;;9.32;100.00;100402.97;4936621;29;20897;-89
2023/12/24 08:35:39;;;;;;;0.40;0.30;;;;;;;9.34;100.00;100401.16;4960634;28;20715;-90
2023/12/24 08:38:04;;;;;;;0.40;0.40;;;;;;;9.33;100.00;100404.66;4942385;29;20444;-89
2023/12/24 08:40:29;;;;;;;0.40;0.30;;;;;;;9.34;100.00;100406.38;4960220;28;20491;-90
2023/12/24 08:42:55;;;;;;;0.35;0.30;;;;;;;9.35;100.00;100393.31;4957196;28;20027;-89
2023/12/24 08:45:22;;;;;;;0.55;0.50;;;;;;;9.35;100.00;100397.69;4958962;28;20027;-90
2023/12/24 08:47:47;;;;;;;0.57;0.30;;;;;;;9.38;100.00;100392.41;4940694;29;20070;-89
2023/12/24 08:50:13;;;;;;;1.00;0.50;;;;;;;9.38;100.00;100393.25;4941604;28;20062;-89
2023/12/24 08:52:40;;;;;;;0.60;0.40;;;;;;;9.39;100.00;100389.75;4955359;28;20039;-90
2023/12/24 08:55:06;;;;;;;1.50;0.52;;;;;;;9.41;100.00;100390.56;4939677;29;20027;-91
2023/12/24 08:57:31;;;;;;;2.72;0.50;;;;;;;9.45;100.00;100393.91;4939417;29;20089;-89
2023/12/24 08:59:56;;;;;;;0.57;0.38;;;;;;;9.45;100.00;100409.50;4962282;28;20035;-90
2023/12/24 09:02:22;;;;;;;3.60;0.55;;;;;;;9.46;100.00;100400.81;4953839;29;20031;-90
2023/12/24 09:04:48;;;;;;;2.03;0.50;;;;;;;9.48;100.00;100404.22;4940978;28;20067;-90
2023/12/24 09:07:14;;;;;;;0.60;0.50;;;;;;;9.50;100.00;100412.81;4940903;29;20109;-90
2023/12/24 09:09:39;;;;;;;0.60;0.60;;;;;;;9.49;100.00;100425.84;4953897;28;20169;-90
2023/12/24 09:12:05;;;;;;;0.82;0.60;;;;;;;9.52;100.00;100416.25;4946108;28;20526;-90
2023/12/24 09:14:30;;;;;;;0.65;0.60;;;;;;;9.54;100.00;100422.25;4954836;28;20078;-91
2023/12/24 09:16:55;;;;;;;0.70;0.60;;;;;;;9.56;100.00;100412.63;4953616;28;20035;-89
2023/12/24 09:19:21;;;;;;;1.65;0.60;;;;;;;9.59;100.00;100426.44;4952645;29;20035;-90
2023/12/24 09:21:46;;;;;;;0.77;0.70;;;;;;;9.60;100.00;100422.94;4953477;29;20042;-91
2023/12/24 09:24:11;;;;;;;1.30;0.70;;;;;;;9.61;100.00;100425.50;4941852;29;20066;-91
2023/12/24 09:26:37;;;;;;;1.00;0.70;;;;;;;9.62;100.00;100421.16;4939027;29;20031;-90
2023/12/24 09:29:02;;;;;;;0.70;0.68;;;;;;;9.64;100.00;100417.63;4953072;29;20038;-90
2023/12/24 09:31:27;;;;;;;0.60;0.57;;;;;;;9.65;100.00;100413.28;4940404;29;20125;-90
2023/12/24 09:33:53;;;;;;;1.10;0.70;;;;;;;9.67;100.00;100408.91;4953318;29;20234;-91
2023/12/24 09:36:18;;;;;;;0.80;0.60;;;;;;;9.67;100.00;100406.31;4942970;29;20114;-91
2023/12/24 09:38:43;;;;;;;1.75;0.82;;;;;;;9.68;100.00;100406.25;4935101;29;20122;-90
2023/12/24 09:41:09;;;;;;;1.30;0.65;;;;;;;9.71;100.00;100402.72;4957361;28;20106;-89
2023/12/24 09:43:37;;;;;;;1.05;0.57;;;;;;;9.72;100.00;100404.44;4940674;29;20027;-92
2023/12/24 09:46:03;;;;;;;2.25;0.60;;;;;;;9.70;100.00;100404.47;4948723;29;20042;-89
2023/12/24 09:48:28;;;;;;;0.65;0.65;;;;;;;9.71;100.00;100410.53;4955388;28;20114;-88
2023/12/24 09:50:54;;;;;;;2.53;0.60;;;;;;;9.71;100.00;100405.31;4953111;29;20041;-90
2023/12/24 09:53:19;;;;;;;1.92;0.73;;;;;;;9.73;100.00;100413.94;4942641;29;20497;-92
2023/12/24 09:55:45;;;;;;;0.85;0.50;;;;;;;9.74;100.00;100396.56;4952987;28;20029;-91
2023/12/24 09:58:13;;;;;;;1.40;0.60;;;;;;;9.74;100.00;100399.19;4957089;28;20035;-91
2023/12/24 10:00:38;;;;;;;0.85;0.70;;;;;;;9.74;100.00;100402.59;4940733;28;20042;-91
2023/12/24 10:03:03;;;;;;;0.70;0.70;;;;;;;9.75;100.00;100393.09;4943117;29;20027;-90
2023/12/24 10:05:29;;;;;;;2.55;0.60;;;;;;;9.77;100.00;100399.94;4959643;28;20055;-93
2023/12/24 10:07:54;;;;;;;2.67;0.60;;;;;;;9.77;100.00;100397.31;4956527;28;20049;-91
2023/12/24 10:10:29;;;;;;;1.65;0.85;;;;;;;9.78;100.00;100419.81;4952904;28;20491;-91
2023/12/24 10:13:05;;;;;;;1.88;1.00;;;;;;;9.79;100.00;100412.88;4951852;28;20106;-90
2023/12/24 10:15:32;;;;;;;2.53;1.10;;;;;;;9.80;100.00;100407.63;4940169;28;20067;-89
2023/12/24 10:18:17;;;;;;;2.88;1.40;;;;;;;9.83;100.00;100399.75;4956296;28;20066;-92
2023/12/24 10:20:45;;;;;;;3.35;1.73;;;;;;;9.83;100.00;100410.16;4940500;29;20039;-92
2023/12/24 10:23:11;;;;;;;3.17;2.22;;;;;;;9.85;100.00;100408.34;4956765;28;20027;-90
2023/12/24 10:25:36;;;;;;;4.53;2.72;;;;;;;9.89;100.00;100403.06;4940782;28;20118;-91
2023/12/24 10:28:07;;;;;;;7.07;4.03;;;;;;;9.93;100.00;100399.47;4960235;28;20058;-92
2023/12/24 10:30:34;;;;;;;8.68;3.78;;;;;;;9.94;100.00;100399.44;4951156;29;20148;-90
2023/12/24 10:33:08;;;;;;;6.45;4.00;;;;;;;9.96;100.00;100401.97;4954530;28;20031;-94
2023/12/24 10:35:34;;;;;;;8.63;5.00;;;;;;;9.96;100.00;100386.38;4954825;28;20053;-94
2023/12/24 10:38:13;;;;;;;10.30;5.60;;;;;;;9.98;100.00;100385.47;4941473;29;20486;-91
2023/12/24 10:40:39;;;;;;;10.07;5.78;;;;;;;9.99;100.00;100392.34;4938890;29;20027;-92
2023/12/24 10:43:04;;;;;;;9.13;5.63;;;;;;;10.02;100.00;100391.41;4942657;28;20031;-93
2023/12/24 10:45:29;;;;;;;10.93;5.90;;;;;;;10.03;100.00;100387.91;4941439;29;20042;-94
2023/12/24 10:47:55;;;;;;;9.52;5.38;;;;;;;10.04;100.00;100376.63;4956692;29;20103;-93
2023/12/24 10:50:20;;;;;;;13.32;6.70;;;;;;;10.06;100.00;100380.03;4935674;29;20447;-92
2023/12/24 10:52:46;;;;;;;12.07;6.50;;;;;;;10.07;100.00;100370.47;4954621;28;20379;-93
2023/12/24 10:55:12;;;;;;;10.48;5.35;;;;;;;10.07;100.00;100366.13;4953039;28;20027;-93
2023/12/24 10:57:43;;;;;;;10.88;5.78;;;;;;;10.12;100.00;100369.41;4941138;29;20023;-94
2023/12/24 11:00:14;;;;;;;10.65;5.30;;;;;;;10.14;100.00;100372.81;4945780;28;20035;-90
2023/12/24 11:02:44;;;;;;;11.68;5.53;;;;;;;10.17;100.00;100374.47;4951984;29;20035;-90
2023/12/24 11:05:10;;;;;;;9.80;5.93;;;;;;;10.18;100.00;100353.63;4940283;28;20038;-91
2023/12/24 11:07:46;;;;;;;11.60;5.50;;;;;;;10.22;100.00;100348.34;4945824;29;20020;-91
2023/12/24 11:10:51;;;;;;;;;;;;;;;;;;;;;
2023/12/24 11:13:31;;;;;;;7.60;3.88;;;;;;;10.27;100.00;100346.44;4955021;29;20038;-92
2023/12/24 11:15:58;;;;;;;7.60;3.20;;;;;;;10.28;100.00;100336.00;4946609;28;20126;-91
2023/12/24 11:18:38;;;;;;;7.32;3.20;;;;;;;10.28;100.00;100338.59;4942507;29;20122;-89
2023/12/24 11:21:04;;;;;;;5.75;2.50;;;;;;;10.29;100.00;100331.63;4954754;28;20059;-93
2023/12/24 11:23:29;;;;;;;4.65;2.25;;;;;;;10.30;100.00;100330.72;4936045;29;20116;-91
2023/12/24 11:25:54;;;;;;;4.82;2.00;;;;;;;10.32;100.00;100323.75;4941263;28;20031;-92